sensor_id;sensor_type;location;lat;lon;timestamp;P1;durP1;ratioP1;P2;durP2;ratioP2
68473;SDS011;55461;52.066;5.194;2022-07-29T00:02:32;3.5;;;1.5;;
68473;SDS011;55461;52.066;5.194;2022-07-29T00:04:19;2.21;;;1.6;;
68473;SDS011;55461;52.066;5.194;2022-07-29T00:06:06;3.5;;;1.7;;
68473;SDS011;55461;52.066;5.194;2022-07-29T00:07:53;3.1;;;1.7;;
68473;SDS011;55461;52.066;5.194;2022-07-29T00:09:41;3.7;;;1.8;;
68473;SDS011;55461;52.066;5.194;2022-07-29T00:11:27;2.6;;;1.5;;
68473;SDS011;55461;52.066;5.194;2022-07-29T00:15:01;2.9;;;1.5;;
68473;SDS011;55461;52.066;5.194;2022-07-29T00:16:48;2.7;;;1.5;;
68473;SDS011;55461;52.066;5.194;2022-07-29T00:18:34;2.8;;;1.5;;
68473;SDS011;55461;52.066;5.194;2022-07-29T00:20:20;4.1;;;1.7;;
68473;SDS011;55461;52.066;5.194;2022-07-29T00:22:06;3.2;;;1.6;;
68473;SDS011;55461;52.066;5.194;2022-07-29T00:23:54;2.1;;;1.6;;
68473;SDS011;55461;52.066;5.194;2022-07-29T00:27:26;2.6;;;1.7;;
68473;SDS011;55461;52.066;5.194;2022-07-29T00:29:12;2.31;;;1.4;;
68473;SDS011;55461;52.066;5.194;2022-07-29T00:30:58;2.31;;;1.6;;
68473;SDS011;55461;52.066;5.194;2022-07-29T00:32:44;3.9;;;1.6;;
68473;SDS011;55461;52.066;5.194;2022-07-29T00:37:33;2.9;;;1.7;;
68473;SDS011;55461;52.066;5.194;2022-07-29T00:39:19;2.6;;;1.6;;
68473;SDS011;55461;52.066;5.194;2022-07-29T00:41:05;2.7;;;1.6;;
68473;SDS011;55461;52.066;5.194;2022-07-29T00:42:51;3.4;;;1.6;;
68473;SDS011;55461;52.066;5.194;2022-07-29T00:46:25;3.4;;;1.5;;
68473;SDS011;55461;52.066;5.194;2022-07-29T00:48:12;4.3;;;1.7;;
68473;SDS011;55461;52.066;5.194;2022-07-29T00:49:59;2.4;;;1.4;;
68473;SDS011;55461;52.066;5.194;2022-07-29T00:51:46;4.0;;;1.6;;
68473;SDS011;55461;52.066;5.194;2022-07-29T00:53:35;4.41;;;1.7;;
68473;SDS011;55461;52.066;5.194;2022-07-29T00:55:22;3.5;;;1.6;;
68473;SDS011;55461;52.066;5.194;2022-07-29T00:58:57;4.2;;;1.6;;
68473;SDS011;55461;52.066;5.194;2022-07-29T01:00:44;2.6;;;1.4;;
68473;SDS011;55461;52.066;5.194;2022-07-29T01:02:32;2.4;;;1.5;;
68473;SDS011;55461;52.066;5.194;2022-07-29T01:04:18;2.7;;;1.6;;
68473;SDS011;55461;52.066;5.194;2022-07-29T01:06:05;2.5;;;1.4;;
68473;SDS011;55461;52.066;5.194;2022-07-29T01:07:53;3.0;;;1.6;;
68473;SDS011;55461;52.066;5.194;2022-07-29T01:11:32;2.7;;;1.6;;
68473;SDS011;55461;52.066;5.194;2022-07-29T01:13:20;2.1;;;1.5;;
68473;SDS011;55461;52.066;5.194;2022-07-29T01:15:07;3.3;;;1.6;;
68473;SDS011;55461;52.066;5.194;2022-07-29T01:16:57;2.4;;;1.3;;
68473;SDS011;55461;52.066;5.194;2022-07-29T01:19:00;4.3;;;1.6;;
68473;SDS011;55461;52.066;5.194;2022-07-29T01:21:07;2.9;;;1.6;;
68473;SDS011;55461;52.066;5.194;2022-07-29T01:24:15;2.4;;;1.5;;
68473;SDS011;55461;52.066;5.194;2022-07-29T01:26:52;3.9;;;1.5;;
68473;SDS011;55461;52.066;5.194;2022-07-29T01:28:47;4.0;;;1.8;;
68473;SDS011;55461;52.066;5.194;2022-07-29T01:32:37;3.0;;;1.5;;
68473;SDS011;55461;52.066;5.194;2022-07-29T01:34:27;4.0;;;1.7;;
68473;SDS011;55461;52.066;5.194;2022-07-29T01:36:22;2.4;;;1.6;;
68473;SDS011;55461;52.066;5.194;2022-07-29T01:38:13;4.61;;;1.7;;
68473;SDS011;55461;52.066;5.194;2022-07-29T01:40:08;3.1;;;1.6;;
68473;SDS011;55461;52.066;5.194;2022-07-29T01:42:09;3.9;;;1.5;;
68473;SDS011;55461;52.066;5.194;2022-07-29T01:44:05;2.7;;;1.5;;
68473;SDS011;55461;52.066;5.194;2022-07-29T01:46:01;2.31;;;1.6;;
68473;SDS011;55461;52.066;5.194;2022-07-29T01:47:54;3.2;;;1.6;;
68473;SDS011;55461;52.066;5.194;2022-07-29T01:49:51;2.9;;;1.6;;
68473;SDS011;55461;52.066;5.194;2022-07-29T01:53:35;4.3;;;1.6;;
68473;SDS011;55461;52.066;5.194;2022-07-29T01:55:38;3.3;;;1.7;;
68473;SDS011;55461;52.066;5.194;2022-07-29T01:57:30;2.6;;;1.9;;
68473;SDS011;55461;52.066;5.194;2022-07-29T01:59:19;3.4;;;1.6;;
68473;SDS011;55461;52.066;5.194;2022-07-29T02:01:07;2.21;;;1.6;;
68473;SDS011;55461;52.066;5.194;2022-07-29T02:02:56;2.5;;;1.5;;
68473;SDS011;55461;52.066;5.194;2022-07-29T02:04:48;3.6;;;1.5;;
68473;SDS011;55461;52.066;5.194;2022-07-29T02:06:37;2.8;;;1.8;;
68473;SDS011;55461;52.066;5.194;2022-07-29T02:10:16;3.4;;;1.7;;
68473;SDS011;55461;52.066;5.194;2022-07-29T02:12:08;3.1;;;1.8;;
68473;SDS011;55461;52.066;5.194;2022-07-29T02:13:58;3.1;;;1.7;;
68473;SDS011;55461;52.066;5.194;2022-07-29T02:15:47;2.8;;;1.7;;
68473;SDS011;55461;52.066;5.194;2022-07-29T02:17:39;2.9;;;1.9;;
68473;SDS011;55461;52.066;5.194;2022-07-29T02:19:30;5.4;;;1.8;;
68473;SDS011;55461;52.066;5.194;2022-07-29T02:21:19;2.9;;;1.9;;
68473;SDS011;55461;52.066;5.194;2022-07-29T02:23:10;3.7;;;2.0;;
68473;SDS011;55461;52.066;5.194;2022-07-29T02:26:47;3.9;;;1.8;;
68473;SDS011;55461;52.066;5.194;2022-07-29T02:28:36;2.1;;;1.5;;
68473;SDS011;55461;52.066;5.194;2022-07-29T02:30:23;2.4;;;1.9;;
68473;SDS011;55461;52.066;5.194;2022-07-29T02:32:11;3.1;;;1.8;;
68473;SDS011;55461;52.066;5.194;2022-07-29T02:34:02;3.5;;;1.8;;
68473;SDS011;55461;52.066;5.194;2022-07-29T02:35:52;3.0;;;1.7;;
68473;SDS011;55461;52.066;5.194;2022-07-29T02:39:29;3.1;;;1.7;;
68473;SDS011;55461;52.066;5.194;2022-07-29T02:41:18;2.9;;;1.8;;
68473;SDS011;55461;52.066;5.194;2022-07-29T02:43:08;2.6;;;1.7;;
68473;SDS011;55461;52.066;5.194;2022-07-29T02:44:56;4.0;;;2.0;;
68473;SDS011;55461;52.066;5.194;2022-07-29T02:46:45;2.21;;;1.7;;
68473;SDS011;55461;52.066;5.194;2022-07-29T02:48:37;3.7;;;1.6;;
68473;SDS011;55461;52.066;5.194;2022-07-29T02:50:29;3.0;;;1.8;;
68473;SDS011;55461;52.066;5.194;2022-07-29T02:54:16;4.41;;;2.0;;
68473;SDS011;55461;52.066;5.194;2022-07-29T02:56:10;3.4;;;2.0;;
68473;SDS011;55461;52.066;5.194;2022-07-29T02:58:01;2.9;;;1.9;;
68473;SDS011;55461;52.066;5.194;2022-07-29T02:59:52;3.3;;;2.0;;
68473;SDS011;55461;52.066;5.194;2022-07-29T03:01:43;2.7;;;1.9;;
68473;SDS011;55461;52.066;5.194;2022-07-29T03:03:32;3.6;;;2.21;;
68473;SDS011;55461;52.066;5.194;2022-07-29T03:05:21;4.0;;;1.9;;
68473;SDS011;55461;52.066;5.194;2022-07-29T03:07:08;3.3;;;2.0;;
68473;SDS011;55461;52.066;5.194;2022-07-29T03:10:47;3.2;;;2.1;;
68473;SDS011;55461;52.066;5.194;2022-07-29T03:12:34;4.1;;;2.1;;
68473;SDS011;55461;52.066;5.194;2022-07-29T03:14:22;2.8;;;1.9;;
68473;SDS011;55461;52.066;5.194;2022-07-29T03:16:10;4.91;;;2.21;;
68473;SDS011;55461;52.066;5.194;2022-07-29T03:17:59;3.7;;;1.9;;
68473;SDS011;55461;52.066;5.194;2022-07-29T03:19:45;3.5;;;2.0;;
68473;SDS011;55461;52.066;5.194;2022-07-29T03:23:21;4.3;;;2.4;;
68473;SDS011;55461;52.066;5.194;2022-07-29T03:25:10;5.0;;;2.31;;
68473;SDS011;55461;52.066;5.194;2022-07-29T03:26:59;3.9;;;2.1;;
68473;SDS011;55461;52.066;5.194;2022-07-29T03:28:46;4.5;;;1.8;;
68473;SDS011;55461;52.066;5.194;2022-07-29T03:30:33;2.5;;;1.8;;
68473;SDS011;55461;52.066;5.194;2022-07-29T03:32:20;2.5;;;1.8;;
68473;SDS011;55461;52.066;5.194;2022-07-29T03:35:52;3.6;;;2.1;;
68473;SDS011;55461;52.066;5.194;2022-07-29T03:37:38;3.0;;;1.8;;
68473;SDS011;55461;52.066;5.194;2022-07-29T03:39:25;3.1;;;1.8;;
68473;SDS011;55461;52.066;5.194;2022-07-29T03:41:16;4.8;;;2.4;;
68473;SDS011;55461;52.066;5.194;2022-07-29T03:43:05;5.11;;;2.4;;
68473;SDS011;55461;52.066;5.194;2022-07-29T03:44:56;3.6;;;2.31;;
68473;SDS011;55461;52.066;5.194;2022-07-29T03:48:36;4.2;;;2.21;;
68473;SDS011;55461;52.066;5.194;2022-07-29T03:50:25;4.61;;;2.1;;
68473;SDS011;55461;52.066;5.194;2022-07-29T03:52:12;4.5;;;2.4;;
68473;SDS011;55461;52.066;5.194;2022-07-29T03:54:00;5.0;;;2.0;;
68473;SDS011;55461;52.066;5.194;2022-07-29T03:55:50;2.6;;;2.0;;
68473;SDS011;55461;52.066;5.194;2022-07-29T03:57:40;3.9;;;2.21;;
68473;SDS011;55461;52.066;5.194;2022-07-29T03:59:28;4.1;;;2.31;;
68473;SDS011;55461;52.066;5.194;2022-07-29T04:03:06;4.0;;;2.31;;
68473;SDS011;55461;52.066;5.194;2022-07-29T04:04:55;4.0;;;2.31;;
68473;SDS011;55461;52.066;5.194;2022-07-29T04:06:43;3.8;;;2.1;;
68473;SDS011;55461;52.066;5.194;2022-07-29T04:08:31;3.3;;;2.21;;
68473;SDS011;55461;52.066;5.194;2022-07-29T04:10:19;3.9;;;2.21;;
68473;SDS011;55461;52.066;5.194;2022-07-29T04:12:05;3.1;;;2.5;;
68473;SDS011;55461;52.066;5.194;2022-07-29T04:15:38;4.5;;;2.21;;
68473;SDS011;55461;52.066;5.194;2022-07-29T04:17:25;2.6;;;2.31;;
68473;SDS011;55461;52.066;5.194;2022-07-29T04:19:11;3.5;;;2.31;;
68473;SDS011;55461;52.066;5.194;2022-07-29T04:21:00;3.9;;;2.21;;
68473;SDS011;55461;52.066;5.194;2022-07-29T04:22:47;4.41;;;2.8;;
68473;SDS011;55461;52.066;5.194;2022-07-29T04:24:34;4.1;;;2.6;;
68473;SDS011;55461;52.066;5.194;2022-07-29T04:28:08;6.1;;;2.6;;
68473;SDS011;55461;52.066;5.194;2022-07-29T04:29:56;4.2;;;2.21;;
68473;SDS011;55461;52.066;5.194;2022-07-29T04:31:42;3.6;;;2.31;;
68473;SDS011;55461;52.066;5.194;2022-07-29T04:33:29;4.1;;;2.6;;
68473;SDS011;55461;52.066;5.194;2022-07-29T04:35:15;5.7;;;3.1;;
68473;SDS011;55461;52.066;5.194;2022-07-29T04:37:02;4.41;;;2.31;;
68473;SDS011;55461;52.066;5.194;2022-07-29T04:40:36;4.8;;;2.31;;
68473;SDS011;55461;52.066;5.194;2022-07-29T04:42:22;2.5;;;2.1;;
68473;SDS011;55461;52.066;5.194;2022-07-29T04:44:08;4.3;;;2.31;;
68473;SDS011;55461;52.066;5.194;2022-07-29T04:45:54;3.6;;;2.0;;
68473;SDS011;55461;52.066;5.194;2022-07-29T04:47:40;3.9;;;2.21;;
68473;SDS011;55461;52.066;5.194;2022-07-29T04:51:14;3.9;;;2.4;;
68473;SDS011;55461;52.066;5.194;2022-07-29T04:53:02;4.5;;;2.4;;
68473;SDS011;55461;52.066;5.194;2022-07-29T04:54:49;3.9;;;2.0;;
68473;SDS011;55461;52.066;5.194;2022-07-29T04:56:35;5.2;;;2.31;;
68473;SDS011;55461;52.066;5.194;2022-07-29T04:58:23;4.61;;;2.21;;
68473;SDS011;55461;52.066;5.194;2022-07-29T05:00:10;3.2;;;2.21;;
68473;SDS011;55461;52.066;5.194;2022-07-29T05:03:43;4.3;;;2.31;;
68473;SDS011;55461;52.066;5.194;2022-07-29T05:05:30;3.4;;;2.31;;
68473;SDS011;55461;52.066;5.194;2022-07-29T05:07:17;2.9;;;2.1;;
68473;SDS011;55461;52.066;5.194;2022-07-29T05:09:03;4.3;;;2.21;;
68473;SDS011;55461;52.066;5.194;2022-07-29T05:10:51;2.7;;;2.0;;
68473;SDS011;55461;52.066;5.194;2022-07-29T05:12:37;3.4;;;2.21;;
68473;SDS011;55461;52.066;5.194;2022-07-29T05:16:10;3.8;;;1.9;;
68473;SDS011;55461;52.066;5.194;2022-07-29T05:17:56;2.9;;;2.31;;
68473;SDS011;55461;52.066;5.194;2022-07-29T05:19:42;3.8;;;2.1;;
68473;SDS011;55461;52.066;5.194;2022-07-29T05:21:30;4.3;;;2.21;;
68473;SDS011;55461;52.066;5.194;2022-07-29T05:23:16;3.7;;;2.1;;
68473;SDS011;55461;52.066;5.194;2022-07-29T05:26:50;4.41;;;2.1;;
68473;SDS011;55461;52.066;5.194;2022-07-29T05:28:37;4.2;;;2.31;;
68473;SDS011;55461;52.066;5.194;2022-07-29T05:30:23;2.8;;;2.1;;
68473;SDS011;55461;52.066;5.194;2022-07-29T05:32:11;4.41;;;2.5;;
68473;SDS011;55461;52.066;5.194;2022-07-29T05:33:58;3.2;;;2.31;;
68473;SDS011;55461;52.066;5.194;2022-07-29T05:35:44;3.0;;;2.1;;
68473;SDS011;55461;52.066;5.194;2022-07-29T05:39:17;3.2;;;2.1;;
68473;SDS011;55461;52.066;5.194;2022-07-29T05:41:03;4.5;;;2.21;;
68473;SDS011;55461;52.066;5.194;2022-07-29T05:42:50;2.9;;;2.1;;
68473;SDS011;55461;52.066;5.194;2022-07-29T05:44:38;3.6;;;2.4;;
68473;SDS011;55461;52.066;5.194;2022-07-29T05:46:25;3.5;;;2.21;;
68473;SDS011;55461;52.066;5.194;2022-07-29T05:48:12;3.1;;;2.21;;
68473;SDS011;55461;52.066;5.194;2022-07-29T05:51:44;4.1;;;2.4;;
68473;SDS011;55461;52.066;5.194;2022-07-29T05:53:30;6.7;;;2.4;;
68473;SDS011;55461;52.066;5.194;2022-07-29T05:55:18;4.0;;;2.31;;
68473;SDS011;55461;52.066;5.194;2022-07-29T05:57:05;3.7;;;2.0;;
68473;SDS011;55461;52.066;5.194;2022-07-29T05:58:52;3.8;;;2.4;;
68473;SDS011;55461;52.066;5.194;2022-07-29T06:02:26;4.0;;;2.4;;
68473;SDS011;55461;52.066;5.194;2022-07-29T06:04:12;4.8;;;2.4;;
68473;SDS011;55461;52.066;5.194;2022-07-29T06:05:59;4.0;;;2.4;;
68473;SDS011;55461;52.066;5.194;2022-07-29T06:07:46;3.8;;;2.21;;
68473;SDS011;55461;52.066;5.194;2022-07-29T06:09:32;4.1;;;2.4;;
68473;SDS011;55461;52.066;5.194;2022-07-29T06:11:19;3.7;;;2.21;;
68473;SDS011;55461;52.066;5.194;2022-07-29T06:14:51;4.1;;;2.5;;
68473;SDS011;55461;52.066;5.194;2022-07-29T06:16:37;4.61;;;2.5;;
68473;SDS011;55461;52.066;5.194;2022-07-29T06:18:24;3.9;;;2.21;;
68473;SDS011;55461;52.066;5.194;2022-07-29T06:20:10;4.1;;;2.7;;
68473;SDS011;55461;52.066;5.194;2022-07-29T06:21:57;4.2;;;2.31;;
68473;SDS011;55461;52.066;5.194;2022-07-29T06:23:45;4.41;;;2.31;;
68473;SDS011;55461;52.066;5.194;2022-07-29T06:27:20;5.4;;;2.5;;
68473;SDS011;55461;52.066;5.194;2022-07-29T06:29:06;5.2;;;2.5;;
68473;SDS011;55461;52.066;5.194;2022-07-29T06:30:54;3.0;;;2.21;;
68473;SDS011;55461;52.066;5.194;2022-07-29T06:32:42;4.7;;;2.5;;
68473;SDS011;55461;52.066;5.194;2022-07-29T06:34:28;4.2;;;2.31;;
68473;SDS011;55461;52.066;5.194;2022-07-29T06:36:14;3.4;;;2.31;;
68473;SDS011;55461;52.066;5.194;2022-07-29T06:41:00;3.8;;;2.5;;
68473;SDS011;55461;52.066;5.194;2022-07-29T06:42:46;3.8;;;2.5;;
68473;SDS011;55461;52.066;5.194;2022-07-29T06:46:20;3.7;;;2.31;;
68473;SDS011;55461;52.066;5.194;2022-07-29T06:48:08;5.11;;;2.7;;
68473;SDS011;55461;52.066;5.194;2022-07-29T06:49:55;5.11;;;2.7;;
68473;SDS011;55461;52.066;5.194;2022-07-29T06:51:41;4.5;;;2.6;;
68473;SDS011;55461;52.066;5.194;2022-07-29T06:53:28;4.61;;;2.6;;
68473;SDS011;55461;52.066;5.194;2022-07-29T06:55:16;4.7;;;2.7;;
68473;SDS011;55461;52.066;5.194;2022-07-29T06:58:48;3.6;;;2.6;;
68473;SDS011;55461;52.066;5.194;2022-07-29T07:00:35;5.5;;;2.9;;
68473;SDS011;55461;52.066;5.194;2022-07-29T07:02:21;5.3;;;2.6;;
68473;SDS011;55461;52.066;5.194;2022-07-29T07:04:08;4.91;;;2.6;;
68473;SDS011;55461;52.066;5.194;2022-07-29T07:05:56;3.1;;;2.5;;
68473;SDS011;55461;52.066;5.194;2022-07-29T07:07:43;5.5;;;2.7;;
68473;SDS011;55461;52.066;5.194;2022-07-29T07:11:15;4.7;;;2.31;;
68473;SDS011;55461;52.066;5.194;2022-07-29T07:13:01;4.61;;;2.5;;
68473;SDS011;55461;52.066;5.194;2022-07-29T07:14:49;4.1;;;2.7;;
68473;SDS011;55461;52.066;5.194;2022-07-29T07:16:35;3.9;;;2.5;;
68473;SDS011;55461;52.066;5.194;2022-07-29T07:18:22;3.4;;;2.5;;
68473;SDS011;55461;52.066;5.194;2022-07-29T07:21:55;5.4;;;2.6;;
68473;SDS011;55461;52.066;5.194;2022-07-29T07:23:42;4.2;;;2.6;;
68473;SDS011;55461;52.066;5.194;2022-07-29T07:25:28;5.2;;;2.7;;
68473;SDS011;55461;52.066;5.194;2022-07-29T07:27:14;5.0;;;2.6;;
68473;SDS011;55461;52.066;5.194;2022-07-29T07:29:00;4.0;;;2.5;;
68473;SDS011;55461;52.066;5.194;2022-07-29T07:30:47;4.8;;;2.7;;
68473;SDS011;55461;52.066;5.194;2022-07-29T07:34:21;4.1;;;2.7;;
68473;SDS011;55461;52.066;5.194;2022-07-29T07:36:07;4.0;;;2.9;;
68473;SDS011;55461;52.066;5.194;2022-07-29T07:37:53;3.5;;;2.6;;
68473;SDS011;55461;52.066;5.194;2022-07-29T07:39:41;5.3;;;2.6;;
68473;SDS011;55461;52.066;5.194;2022-07-29T07:41:27;3.7;;;2.8;;
68473;SDS011;55461;52.066;5.194;2022-07-29T07:43:14;5.2;;;2.5;;
68473;SDS011;55461;52.066;5.194;2022-07-29T07:46:46;3.6;;;2.4;;
68473;SDS011;55461;52.066;5.194;2022-07-29T07:48:34;4.41;;;2.6;;
68473;SDS011;55461;52.066;5.194;2022-07-29T07:50:21;2.9;;;2.5;;
68473;SDS011;55461;52.066;5.194;2022-07-29T07:52:07;4.1;;;2.7;;
68473;SDS011;55461;52.066;5.194;2022-07-29T07:53:54;4.41;;;2.7;;
68473;SDS011;55461;52.066;5.194;2022-07-29T07:57:29;4.61;;;2.6;;
68473;SDS011;55461;52.066;5.194;2022-07-29T07:59:15;3.3;;;2.5;;
68473;SDS011;55461;52.066;5.194;2022-07-29T08:01:02;5.3;;;3.1;;
68473;SDS011;55461;52.066;5.194;2022-07-29T08:02:49;5.11;;;2.5;;
68473;SDS011;55461;52.066;5.194;2022-07-29T08:04:36;9.31;;;2.6;;
68473;SDS011;55461;52.066;5.194;2022-07-29T08:06:25;4.3;;;2.7;;
68473;SDS011;55461;52.066;5.194;2022-07-29T08:09:57;3.3;;;2.4;;
68473;SDS011;55461;52.066;5.194;2022-07-29T08:11:43;4.41;;;2.5;;
68473;SDS011;55461;52.066;5.194;2022-07-29T08:13:30;5.2;;;2.5;;
68473;SDS011;55461;52.066;5.194;2022-07-29T08:15:16;5.7;;;2.7;;
68473;SDS011;55461;52.066;5.194;2022-07-29T08:17:03;3.4;;;2.21;;
68473;SDS011;55461;52.066;5.194;2022-07-29T08:18:49;4.61;;;2.31;;
68473;SDS011;55461;52.066;5.194;2022-07-29T08:22:23;4.91;;;2.4;;
68473;SDS011;55461;52.066;5.194;2022-07-29T08:25:13;5.7;;;2.9;;
68473;SDS011;55461;52.066;5.194;2022-07-29T08:26:59;5.0;;;2.5;;
68473;SDS011;55461;52.066;5.194;2022-07-29T08:28:46;3.7;;;2.4;;
68473;SDS011;55461;52.066;5.194;2022-07-29T08:30:33;4.5;;;2.6;;
68473;SDS011;55461;52.066;5.194;2022-07-29T08:32:20;5.5;;;2.9;;
68473;SDS011;55461;52.066;5.194;2022-07-29T08:34:09;4.41;;;2.4;;
68473;SDS011;55461;52.066;5.194;2022-07-29T08:35:55;4.61;;;2.4;;
68473;SDS011;55461;52.066;5.194;2022-07-29T08:37:42;5.11;;;2.5;;
68473;SDS011;55461;52.066;5.194;2022-07-29T08:41:15;4.5;;;2.9;;
68473;SDS011;55461;52.066;5.194;2022-07-29T08:43:04;5.4;;;2.9;;
68473;SDS011;55461;52.066;5.194;2022-07-29T08:44:53;5.6;;;2.7;;
68473;SDS011;55461;52.066;5.194;2022-07-29T08:46:41;3.8;;;2.8;;
68473;SDS011;55461;52.066;5.194;2022-07-29T08:48:28;6.6;;;2.9;;
68473;SDS011;55461;52.066;5.194;2022-07-29T08:50:15;4.1;;;2.6;;
68473;SDS011;55461;52.066;5.194;2022-07-29T08:53:49;4.1;;;3.0;;
68473;SDS011;55461;52.066;5.194;2022-07-29T08:55:38;4.2;;;2.5;;
68473;SDS011;55461;52.066;5.194;2022-07-29T08:57:26;4.8;;;2.31;;
68473;SDS011;55461;52.066;5.194;2022-07-29T08:59:13;4.61;;;2.6;;
68473;SDS011;55461;52.066;5.194;2022-07-29T09:01:01;3.8;;;2.4;;
68473;SDS011;55461;52.066;5.194;2022-07-29T09:02:50;3.8;;;2.8;;
68473;SDS011;55461;52.066;5.194;2022-07-29T09:06:32;4.61;;;2.7;;
68473;SDS011;55461;52.066;5.194;2022-07-29T09:08:23;6.0;;;2.9;;
68473;SDS011;55461;52.066;5.194;2022-07-29T09:10:10;5.0;;;2.9;;
68473;SDS011;55461;52.066;5.194;2022-07-29T09:11:56;3.9;;;2.9;;
68473;SDS011;55461;52.066;5.194;2022-07-29T09:13:46;7.6;;;2.8;;
68473;SDS011;55461;52.066;5.194;2022-07-29T09:15:32;5.7;;;2.5;;
68473;SDS011;55461;52.066;5.194;2022-07-29T09:19:27;4.41;;;2.6;;
68473;SDS011;55461;52.066;5.194;2022-07-29T09:24:15;4.5;;;2.6;;
68473;SDS011;55461;52.066;5.194;2022-07-29T09:26:05;3.9;;;2.4;;
68473;SDS011;55461;52.066;5.194;2022-07-29T09:27:51;4.2;;;2.7;;
68473;SDS011;55461;52.066;5.194;2022-07-29T09:31:32;5.7;;;2.7;;
68473;SDS011;55461;52.066;5.194;2022-07-29T09:35:16;6.2;;;2.5;;
68473;SDS011;55461;52.066;5.194;2022-07-29T09:37:05;10.5;;;2.5;;
68473;SDS011;55461;52.066;5.194;2022-07-29T09:38:56;6.7;;;2.5;;
68473;SDS011;55461;52.066;5.194;2022-07-29T09:40:43;4.61;;;2.6;;
68473;SDS011;55461;52.066;5.194;2022-07-29T09:42:43;5.8;;;2.4;;
68473;SDS011;55461;52.066;5.194;2022-07-29T09:46:34;5.11;;;2.31;;
68473;SDS011;55461;52.066;5.194;2022-07-29T09:48:23;5.0;;;2.6;;
68473;SDS011;55461;52.066;5.194;2022-07-29T09:50:10;4.41;;;2.21;;
68473;SDS011;55461;52.066;5.194;2022-07-29T09:51:59;5.7;;;2.4;;
68473;SDS011;55461;52.066;5.194;2022-07-29T09:53:50;3.7;;;2.31;;
68473;SDS011;55461;52.066;5.194;2022-07-29T09:55:52;3.9;;;2.31;;
68473;SDS011;55461;52.066;5.194;2022-07-29T09:57:39;7.0;;;2.6;;
68473;SDS011;55461;52.066;5.194;2022-07-29T09:59:26;4.3;;;2.5;;
68473;SDS011;55461;52.066;5.194;2022-07-29T10:03:00;5.4;;;2.5;;
68473;SDS011;55461;52.066;5.194;2022-07-29T10:04:47;4.41;;;2.31;;
68473;SDS011;55461;52.066;5.194;2022-07-29T10:06:34;3.7;;;2.0;;
68473;SDS011;55461;52.066;5.194;2022-07-29T10:08:41;4.91;;;2.4;;
68473;SDS011;55461;52.066;5.194;2022-07-29T10:10:28;3.2;;;1.9;;
68473;SDS011;55461;52.066;5.194;2022-07-29T10:12:18;3.5;;;1.8;;
68473;SDS011;55461;52.066;5.194;2022-07-29T10:14:04;5.2;;;2.0;;
68473;SDS011;55461;52.066;5.194;2022-07-29T10:17:39;3.9;;;2.1;;
68473;SDS011;55461;52.066;5.194;2022-07-29T10:19:27;3.8;;;2.0;;
68473;SDS011;55461;52.066;5.194;2022-07-29T10:21:15;3.8;;;1.8;;
68473;SDS011;55461;52.066;5.194;2022-07-29T10:23:02;3.9;;;2.0;;
68473;SDS011;55461;52.066;5.194;2022-07-29T10:24:51;3.2;;;1.8;;
68473;SDS011;55461;52.066;5.194;2022-07-29T10:26:41;3.9;;;1.9;;
68473;SDS011;55461;52.066;5.194;2022-07-29T10:28:29;3.2;;;1.8;;
68473;SDS011;55461;52.066;5.194;2022-07-29T10:32:10;4.2;;;2.1;;
68473;SDS011;55461;52.066;5.194;2022-07-29T10:34:07;3.6;;;2.31;;
68473;SDS011;55461;52.066;5.194;2022-07-29T10:36:08;8.9;;;2.9;;
68473;SDS011;55461;52.066;5.194;2022-07-29T10:38:14;4.3;;;2.4;;
68473;SDS011;55461;52.066;5.194;2022-07-29T10:41:50;4.2;;;2.21;;
68473;SDS011;55461;52.066;5.194;2022-07-29T10:43:57;3.4;;;2.4;;
68473;SDS011;55461;52.066;5.194;2022-07-29T10:45:47;4.61;;;2.31;;
68473;SDS011;55461;52.066;5.194;2022-07-29T10:47:36;5.3;;;2.5;;
68473;SDS011;55461;52.066;5.194;2022-07-29T10:51:10;6.0;;;2.5;;
68473;SDS011;55461;52.066;5.194;2022-07-29T10:52:57;4.91;;;2.4;;
68473;SDS011;55461;52.066;5.194;2022-07-29T10:54:47;4.7;;;2.7;;
68473;SDS011;55461;52.066;5.194;2022-07-29T10:56:36;3.6;;;2.31;;
68473;SDS011;55461;52.066;5.194;2022-07-29T10:58:23;5.0;;;2.31;;
68473;SDS011;55461;52.066;5.194;2022-07-29T11:00:29;4.5;;;2.31;;
68473;SDS011;55461;52.066;5.194;2022-07-29T11:02:50;4.3;;;2.8;;
68473;SDS011;55461;52.066;5.194;2022-07-29T11:05:08;4.41;;;2.5;;
68473;SDS011;55461;52.066;5.194;2022-07-29T11:07:08;4.5;;;2.8;;
68473;SDS011;55461;52.066;5.194;2022-07-29T11:09:28;6.2;;;2.7;;
68473;SDS011;55461;52.066;5.194;2022-07-29T11:13:55;5.0;;;2.7;;
68473;SDS011;55461;52.066;5.194;2022-07-29T11:15:51;9.1;;;2.8;;
68473;SDS011;55461;52.066;5.194;2022-07-29T11:18:02;5.4;;;3.0;;
68473;SDS011;55461;52.066;5.194;2022-07-29T11:19:51;4.7;;;2.8;;
68473;SDS011;55461;52.066;5.194;2022-07-29T11:22:31;5.2;;;2.6;;
68473;SDS011;55461;52.066;5.194;2022-07-29T11:24:21;5.7;;;2.7;;
68473;SDS011;55461;52.066;5.194;2022-07-29T11:26:14;4.0;;;2.31;;
68473;SDS011;55461;52.066;5.194;2022-07-29T11:28:08;5.11;;;2.8;;
68473;SDS011;55461;52.066;5.194;2022-07-29T11:30:04;5.8;;;2.9;;
68473;SDS011;55461;52.066;5.194;2022-07-29T11:31:54;4.2;;;3.0;;
68473;SDS011;55461;52.066;5.194;2022-07-29T11:33:56;4.1;;;2.6;;
68473;SDS011;55461;52.066;5.194;2022-07-29T11:35:43;5.6;;;2.9;;
68473;SDS011;55461;52.066;5.194;2022-07-29T11:38:22;8.4;;;3.4;;
68473;SDS011;55461;52.066;5.194;2022-07-29T11:40:12;6.1;;;3.1;;
68473;SDS011;55461;52.066;5.194;2022-07-29T11:43:07;9.21;;;3.2;;
68473;SDS011;55461;52.066;5.194;2022-07-29T11:44:55;5.7;;;2.8;;
68473;SDS011;55461;52.066;5.194;2022-07-29T11:46:43;5.5;;;2.9;;
68473;SDS011;55461;52.066;5.194;2022-07-29T11:48:32;6.1;;;2.8;;
68473;SDS011;55461;52.066;5.194;2022-07-29T11:50:29;5.3;;;3.0;;
68473;SDS011;55461;52.066;5.194;2022-07-29T11:52:18;4.5;;;2.7;;
68473;SDS011;55461;52.066;5.194;2022-07-29T11:55:59;5.7;;;3.2;;
68473;SDS011;55461;52.066;5.194;2022-07-29T11:57:47;4.91;;;2.8;;
68473;SDS011;55461;52.066;5.194;2022-07-29T11:59:38;7.2;;;3.0;;
68473;SDS011;55461;52.066;5.194;2022-07-29T12:01:27;6.3;;;2.9;;
68473;SDS011;55461;52.066;5.194;2022-07-29T12:03:22;5.11;;;2.9;;
68473;SDS011;55461;52.066;5.194;2022-07-29T12:05:10;5.9;;;3.2;;
68473;SDS011;55461;52.066;5.194;2022-07-29T12:06:57;5.3;;;2.6;;
68473;SDS011;55461;52.066;5.194;2022-07-29T12:10:31;4.91;;;2.8;;
68473;SDS011;55461;52.066;5.194;2022-07-29T12:12:18;5.4;;;2.9;;
68473;SDS011;55461;52.066;5.194;2022-07-29T12:14:05;5.3;;;3.0;;
68473;SDS011;55461;52.066;5.194;2022-07-29T12:15:52;4.3;;;2.8;;
68473;SDS011;55461;52.066;5.194;2022-07-29T12:17:39;6.8;;;2.8;;
68473;SDS011;55461;52.066;5.194;2022-07-29T12:19:26;5.7;;;3.3;;
68473;SDS011;55461;52.066;5.194;2022-07-29T12:23:03;4.3;;;2.4;;
68473;SDS011;55461;52.066;5.194;2022-07-29T12:24:52;4.0;;;2.4;;
68473;SDS011;55461;52.066;5.194;2022-07-29T12:26:48;5.5;;;2.5;;
68473;SDS011;55461;52.066;5.194;2022-07-29T12:28:36;4.3;;;2.5;;
68473;SDS011;55461;52.066;5.194;2022-07-29T12:30:23;4.3;;;2.5;;
68473;SDS011;55461;52.066;5.194;2022-07-29T12:32:21;6.6;;;2.9;;
68473;SDS011;55461;52.066;5.194;2022-07-29T12:34:09;5.2;;;2.4;;
68473;SDS011;55461;52.066;5.194;2022-07-29T12:37:45;5.5;;;2.5;;
68473;SDS011;55461;52.066;5.194;2022-07-29T12:39:34;5.3;;;2.6;;
68473;SDS011;55461;52.066;5.194;2022-07-29T12:41:21;4.8;;;2.8;;
68473;SDS011;55461;52.066;5.194;2022-07-29T12:43:10;5.3;;;2.21;;
68473;SDS011;55461;52.066;5.194;2022-07-29T12:44:57;6.7;;;2.31;;
68473;SDS011;55461;52.066;5.194;2022-07-29T12:47:00;5.0;;;2.6;;
68473;SDS011;55461;52.066;5.194;2022-07-29T12:48:50;4.61;;;2.6;;
68473;SDS011;55461;52.066;5.194;2022-07-29T12:52:42;5.5;;;2.6;;
68473;SDS011;55461;52.066;5.194;2022-07-29T12:54:30;4.7;;;2.31;;
68473;SDS011;55461;52.066;5.194;2022-07-29T12:56:16;4.2;;;2.31;;
68473;SDS011;55461;52.066;5.194;2022-07-29T12:58:03;4.61;;;2.6;;
68473;SDS011;55461;52.066;5.194;2022-07-29T12:59:59;5.3;;;2.6;;
68473;SDS011;55461;52.066;5.194;2022-07-29T13:01:50;4.1;;;2.31;;
68473;SDS011;55461;52.066;5.194;2022-07-29T13:03:47;5.9;;;2.9;;
68473;SDS011;55461;52.066;5.194;2022-07-29T13:05:40;5.9;;;2.9;;
68473;SDS011;55461;52.066;5.194;2022-07-29T13:07:30;5.3;;;2.4;;
68473;SDS011;55461;52.066;5.194;2022-07-29T13:11:07;4.61;;;2.5;;
68473;SDS011;55461;52.066;5.194;2022-07-29T13:13:01;3.8;;;2.21;;